createdAt,value
2022-11-10T00:01:58.636Z,38.72
2022-11-10T00:04:25.320Z,39.08
2022-11-10T00:06:52.012Z,38.63
2022-11-10T00:09:18.610Z,38.67
2022-11-10T00:11:46.094Z,40.30
2022-11-10T00:14:27.977Z,39.55
2022-11-10T00:17:01.995Z,42.30
2022-11-10T00:19:29.204Z,40.70
2022-11-10T00:22:00.248Z,41.65
2022-11-10T00:24:27.917Z,39.97
2022-11-10T00:26:55.689Z,39.85
2022-11-10T00:29:22.612Z,40.35
2022-11-10T00:31:49.212Z,40.88
2022-11-10T00:34:17.018Z,40.97
2022-11-10T00:36:44.285Z,39.60
2022-11-10T00:39:14.562Z,38.13
2022-11-10T00:41:41.202Z,39.95
2022-11-10T00:44:07.783Z,39.40
2022-11-10T00:46:34.574Z,40.70
2022-11-10T00:49:01.102Z,38.55
2022-11-10T00:51:29.589Z,41.55
2022-11-10T00:53:56.281Z,40.92
2022-11-10T00:56:23.618Z,41.60
2022-11-10T00:58:50.694Z,41.05
2022-11-10T01:01:19.612Z,40.40
2022-11-10T01:03:46.259Z,40.13
2022-11-10T01:06:15.988Z,40.88
2022-11-10T01:08:43.711Z,38.53
2022-11-10T01:11:16.649Z,38.03
2022-11-10T01:13:44.592Z,38.85
2022-11-10T01:16:14.395Z,41.33
2022-11-10T01:18:41.105Z,38.35
2022-11-10T01:21:08.299Z,39.67
2022-11-10T01:23:35.391Z,39.15
2022-11-10T01:26:04.939Z,39.47
2022-11-10T01:28:32.975Z,40.15
2022-11-10T01:31:00.114Z,38.85
2022-11-10T01:33:27.488Z,40.20
2022-11-10T01:35:54.741Z,40.63
2022-11-10T01:38:22.037Z,39.63
2022-11-10T01:40:48.839Z,41.75
2022-11-10T01:43:15.838Z,43.00
2022-11-10T01:45:53.434Z,42.13
2022-11-10T01:48:31.700Z,42.58
2022-11-10T01:51:02.567Z,40.22
2022-11-10T01:53:31.802Z,41.67
2022-11-10T01:55:59.329Z,40.30
2022-11-10T01:58:32.929Z,40.00
2022-11-10T02:00:59.606Z,41.72
2022-11-10T02:03:35.556Z,39.47
2022-11-10T02:06:02.476Z,42.22
2022-11-10T02:08:29.531Z,40.85
2022-11-10T02:10:56.153Z,40.08
2022-11-10T02:13:23.099Z,39.45
2022-11-10T02:15:50.238Z,41.60
2022-11-10T02:18:17.061Z,41.08
2022-11-10T02:20:45.331Z,38.53
2022-11-10T02:23:28.481Z,38.35
2022-11-10T02:25:55.244Z,37.47
2022-11-10T02:28:22.403Z,38.85
2022-11-10T02:30:49.378Z,39.60
2022-11-10T02:33:17.850Z,38.05
2022-11-10T02:35:46.579Z,39.08
2022-11-10T02:38:14.539Z,40.03
2022-11-10T02:40:41.413Z,37.70
2022-11-10T02:43:11.607Z,38.45
2022-11-10T02:45:45.585Z,38.88
2022-11-10T02:48:14.223Z,38.85
2022-11-10T02:50:41.526Z,37.20
2022-11-10T02:53:08.744Z,38.40
2022-11-10T02:55:35.429Z,39.78
2022-11-10T02:58:02.049Z,38.63
2022-11-10T03:00:28.640Z,35.97
2022-11-10T03:02:57.949Z,37.80
2022-11-10T03:05:24.748Z,36.17
2022-11-10T03:07:55.470Z,36.95
2022-11-10T03:10:22.496Z,37.25
2022-11-10T03:12:50.188Z,34.58
2022-11-10T03:15:16.754Z,34.70
2022-11-10T03:17:43.363Z,35.88
2022-11-10T03:20:10.411Z,35.80
2022-11-10T03:22:37.043Z,34.00
2022-11-10T03:25:04.147Z,36.60
2022-11-10T03:27:30.716Z,35.13
2022-11-10T03:29:57.253Z,34.17
2022-11-10T03:32:23.868Z,31.77
2022-11-10T03:34:50.453Z,29.85
2022-11-10T03:37:17.041Z,28.92
2022-11-10T03:39:43.617Z,29.27
2022-11-10T03:42:10.340Z,28.95
2022-11-10T03:44:36.907Z,26.65
2022-11-10T03:47:04.042Z,28.15
2022-11-10T03:49:31.303Z,26.48
2022-11-10T03:51:57.977Z,27.92
2022-11-10T03:54:24.605Z,27.00
2022-11-10T03:56:51.199Z,28.23
2022-11-10T03:59:17.895Z,28.35
2022-11-10T04:01:44.486Z,28.15
2022-11-10T04:04:31.312Z,26.40
2022-11-10T04:09:42.228Z,26.23
2022-11-10T04:12:25.117Z,27.63
2022-11-10T04:15:07.198Z,28.63
2022-11-10T04:17:33.795Z,29.63
2022-11-10T04:20:02.451Z,28.95
2022-11-10T04:22:47.462Z,28.98
2022-11-10T04:25:14.093Z,29.40
2022-11-10T04:27:40.691Z,30.77
2022-11-10T04:30:07.753Z,31.85
2022-11-10T04:32:34.905Z,31.30
2022-11-10T04:35:01.472Z,28.38
2022-11-10T04:37:28.070Z,28.90
2022-11-10T04:39:57.869Z,29.65
2022-11-10T04:42:24.422Z,29.95
2022-11-10T04:44:51.006Z,29.30
2022-11-10T04:47:17.579Z,30.88
2022-11-10T04:49:44.149Z,30.75
2022-11-10T04:52:10.747Z,30.10
2022-11-10T04:54:37.593Z,30.63
2022-11-10T04:57:04.163Z,30.58
2022-11-10T04:59:30.761Z,29.95
2022-11-10T05:01:57.324Z,30.25
2022-11-10T05:04:24.048Z,28.55
2022-11-10T05:06:50.866Z,30.20
2022-11-10T05:09:17.503Z,30.25
2022-11-10T05:11:44.417Z,29.38
2022-11-10T05:14:11.010Z,28.75
2022-11-10T05:16:38.065Z,27.23
2022-11-10T05:19:04.701Z,27.40
2022-11-10T05:21:31.312Z,27.42
2022-11-10T05:23:57.913Z,28.35
2022-11-10T05:26:24.556Z,27.63
2022-11-10T05:28:51.156Z,27.45
2022-11-10T05:31:17.813Z,29.02
2022-11-10T05:33:44.948Z,28.55
2022-11-10T05:36:11.616Z,26.92
2022-11-10T05:38:43.269Z,26.48
2022-11-10T05:41:11.102Z,26.90
2022-11-10T05:43:38.040Z,29.23
2022-11-10T05:46:04.649Z,27.50
2022-11-10T05:48:31.243Z,26.85
2022-11-10T05:50:57.841Z,27.25
2022-11-10T05:53:24.783Z,28.90
2022-11-10T05:55:51.608Z,28.38
2022-11-10T05:58:18.193Z,28.08
2022-11-10T06:00:44.869Z,26.92
2022-11-10T06:03:17.766Z,28.35
2022-11-10T06:05:45.013Z,29.10
2022-11-10T06:08:11.621Z,28.75
2022-11-10T06:10:39.151Z,29.23
2022-11-10T06:13:05.830Z,28.70
2022-11-10T06:15:32.658Z,29.10
2022-11-10T06:17:59.560Z,31.15
2022-11-10T06:20:27.951Z,30.80
2022-11-10T06:23:00.014Z,32.13
2022-11-10T06:25:28.530Z,31.33
2022-11-10T06:27:55.389Z,30.02
2022-11-10T06:30:22.472Z,29.88
2022-11-10T06:32:49.321Z,29.50
2022-11-10T06:35:16.116Z,29.63
2022-11-10T06:37:42.932Z,30.42
2022-11-10T06:40:12.734Z,27.08
2022-11-10T06:42:39.663Z,26.58
2022-11-10T06:45:06.582Z,26.83
2022-11-10T06:47:33.111Z,24.88
2022-11-10T06:49:59.670Z,25.23
2022-11-10T06:52:26.238Z,24.20
2022-11-10T06:54:52.832Z,22.92
2022-11-10T06:57:19.622Z,25.30
2022-11-10T06:59:46.176Z,24.42
2022-11-10T07:02:14.616Z,21.73
2022-11-10T07:04:42.677Z,23.10
2022-11-10T07:07:10.194Z,24.02
2022-11-10T07:09:37.829Z,23.25
2022-11-10T07:12:05.339Z,25.35
2022-11-10T07:14:31.939Z,27.42
2022-11-10T07:16:58.513Z,25.15
2022-11-10T07:19:25.171Z,25.45
2022-11-10T07:21:51.862Z,26.38
2022-11-10T07:24:18.447Z,26.58
2022-11-10T07:26:45.469Z,26.02
2022-11-10T07:29:12.100Z,26.50
2022-11-10T07:31:38.662Z,23.85
2022-11-10T07:34:05.281Z,25.92
2022-11-10T07:36:31.919Z,26.20
2022-11-10T07:38:58.477Z,26.38
2022-11-10T07:41:25.081Z,25.60
2022-11-10T07:43:51.641Z,26.25
2022-11-10T07:46:18.207Z,23.38
2022-11-10T07:48:44.828Z,24.33
2022-11-10T07:51:11.428Z,26.92
2022-11-10T07:53:38.785Z,25.60
2022-11-10T07:56:05.834Z,24.13
2022-11-10T07:58:33.149Z,23.25
2022-11-10T08:00:59.997Z,23.80
2022-11-10T08:03:26.786Z,25.48
2022-11-10T08:05:53.492Z,24.83
2022-11-10T08:08:20.034Z,24.55
2022-11-10T08:10:46.625Z,24.38
2022-11-10T08:13:13.658Z,24.55
2022-11-10T08:15:41.295Z,24.77
2022-11-10T08:18:17.172Z,23.83
2022-11-10T08:20:44.285Z,24.15
2022-11-10T08:23:14.655Z,24.20
2022-11-10T08:25:41.601Z,23.90
2022-11-10T08:28:12.259Z,22.90
2022-11-10T08:30:41.349Z,21.17
2022-11-10T08:33:10.589Z,21.67
2022-11-10T08:35:40.690Z,24.25
2022-11-10T08:38:10.167Z,23.52
2022-11-10T08:40:41.381Z,24.52
2022-11-10T08:43:08.701Z,23.73
2022-11-10T08:45:36.875Z,22.95
2022-11-10T08:48:06.398Z,22.13
2022-11-10T08:50:33.129Z,22.65
2022-11-10T08:53:02.568Z,22.75
2022-11-10T08:55:29.535Z,22.00
2022-11-10T08:58:05.869Z,23.90
2022-11-10T09:05:36.128Z,24.10
2022-11-10T09:08:04.431Z,23.00
2022-11-10T09:10:32.454Z,23.65
2022-11-10T09:13:01.385Z,22.15
2022-11-10T09:15:29.002Z,22.90
2022-11-10T09:17:59.483Z,22.02
2022-11-10T09:20:28.118Z,22.80
2022-11-10T09:22:54.974Z,24.17
2022-11-10T09:25:22.069Z,22.88
2022-11-10T09:27:48.671Z,22.67
2022-11-10T09:30:17.940Z,21.67
2022-11-10T09:32:46.759Z,22.98
2022-11-10T09:35:13.752Z,22.15
2022-11-10T09:37:40.531Z,22.50
2022-11-10T09:40:13.137Z,22.70
2022-11-10T09:42:41.465Z,20.85
2022-11-10T09:45:22.047Z,23.20
2022-11-10T09:48:10.841Z,23.23
2022-11-10T09:50:44.262Z,23.10
2022-11-10T09:53:16.757Z,22.60
2022-11-10T09:55:48.755Z,22.25
2022-11-10T09:58:16.519Z,23.98
2022-11-10T10:00:51.178Z,23.52
2022-11-10T10:03:24.581Z,22.00
2022-11-10T10:06:05.468Z,23.80
2022-11-10T10:08:36.796Z,24.20
2022-11-10T10:11:31.231Z,25.23
2022-11-10T10:14:14.157Z,23.65
2022-11-10T10:17:03.759Z,22.80
2022-11-10T10:20:02.769Z,21.98
2022-11-10T10:22:45.777Z,22.55
2022-11-10T10:25:20.945Z,21.13
2022-11-10T10:27:51.219Z,22.08
2022-11-10T10:30:20.323Z,20.85
2022-11-10T10:32:47.190Z,18.77
2022-11-10T10:35:16.414Z,16.95
2022-11-10T10:37:51.240Z,19.33
2022-11-10T10:40:23.424Z,20.38
2022-11-10T10:42:50.790Z,19.20
2022-11-10T10:45:23.940Z,19.50
2022-11-10T10:47:53.536Z,20.25
2022-11-10T10:50:23.325Z,20.33
2022-11-10T10:53:06.942Z,20.48
2022-11-10T10:55:36.059Z,19.88
2022-11-10T10:58:06.870Z,18.65
2022-11-10T11:00:45.418Z,16.02
2022-11-10T11:03:24.342Z,15.18
2022-11-10T11:06:08.356Z,11.88
2022-11-10T11:08:35.103Z,10.80
2022-11-10T11:11:10.828Z,9.95
2022-11-10T11:13:37.476Z,9.50
2022-11-10T11:16:07.909Z,9.13
2022-11-10T11:18:39.057Z,11.25
2022-11-10T11:21:33.608Z,12.02
2022-11-10T11:24:12.641Z,10.45
2022-11-10T11:26:54.473Z,10.48
2022-11-10T11:29:21.014Z,10.00
2022-11-10T11:32:04.020Z,10.27
2022-11-10T11:34:46.853Z,10.40
2022-11-10T11:37:34.234Z,8.70
2022-11-10T11:40:31.423Z,9.40
2022-11-10T11:43:08.057Z,8.82
2022-11-10T11:45:55.459Z,9.18
2022-11-10T11:48:33.600Z,8.23
2022-11-10T11:51:15.764Z,7.53
2022-11-10T11:54:05.637Z,8.63
2022-11-10T11:56:39.246Z,7.75
2022-11-10T11:59:20.939Z,6.78
2022-11-10T12:01:58.472Z,7.05
2022-11-10T12:04:44.326Z,6.72
2022-11-10T12:07:35.634Z,6.70
2022-11-10T12:10:15.081Z,6.38
2022-11-10T12:12:51.775Z,6.05
2022-11-10T12:15:48.997Z,5.88
2022-11-10T12:18:32.182Z,4.85
2022-11-10T12:21:33.094Z,5.20
2022-11-10T12:24:27.264Z,4.72
2022-11-10T12:27:13.152Z,5.53
2022-11-10T12:29:46.022Z,5.33
2022-11-10T12:32:20.473Z,5.63
2022-11-10T12:34:53.734Z,5.43
2022-11-10T12:37:28.363Z,5.18
2022-11-10T12:40:11.293Z,5.65
2022-11-10T12:42:41.637Z,4.80
2022-11-10T12:45:19.106Z,4.88
2022-11-10T12:47:47.441Z,5.22
2022-11-10T12:50:29.441Z,4.95
2022-11-10T12:53:03.208Z,4.68
2022-11-10T12:55:41.632Z,5.05
2022-11-10T12:58:13.303Z,4.60
2022-11-10T13:00:54.265Z,4.97
2022-11-10T13:03:37.361Z,4.55
2022-11-10T13:06:07.181Z,4.05
2022-11-10T13:08:47.107Z,4.30
2022-11-10T13:11:13.744Z,4.60
2022-11-10T13:13:42.140Z,4.15
2022-11-10T13:16:11.049Z,3.85
2022-11-10T13:18:37.588Z,3.80
2022-11-10T13:21:04.314Z,3.40
2022-11-10T13:23:33.210Z,4.07
2022-11-10T13:26:05.765Z,3.47
2022-11-10T13:28:47.786Z,3.72
2022-11-10T13:31:31.055Z,4.05
2022-11-10T13:34:09.621Z,3.42
2022-11-10T13:36:51.635Z,4.57
2022-11-10T13:39:19.214Z,3.92
2022-11-10T13:41:50.541Z,4.13
2022-11-10T13:44:23.954Z,3.78
2022-11-10T13:47:35.023Z,4.25
2022-11-10T13:50:21.071Z,3.60
2022-11-10T13:53:08.571Z,3.75
2022-11-10T13:55:52.187Z,3.47
2022-11-10T13:58:25.203Z,3.72
2022-11-10T14:01:26.216Z,3.92
2022-11-10T14:03:57.370Z,3.25
2022-11-10T14:06:30.944Z,3.13
2022-11-10T14:09:11.429Z,3.63
2022-11-10T14:11:50.012Z,3.10
2022-11-10T14:14:24.610Z,3.40
2022-11-10T14:16:53.168Z,3.25
2022-11-10T14:19:39.481Z,3.58
2022-11-10T14:22:21.918Z,2.88
2022-11-10T14:24:54.244Z,2.85
2022-11-10T14:27:25.953Z,2.83
2022-11-10T14:30:08.002Z,2.95
2022-11-10T14:32:37.849Z,2.78
2022-11-10T14:35:05.066Z,3.55
2022-11-10T14:37:31.871Z,3.03
2022-11-10T14:40:01.772Z,2.67
2022-11-10T14:42:32.444Z,3.65
2022-11-10T14:45:14.681Z,3.30
2022-11-10T14:47:41.614Z,2.90
2022-11-10T14:50:20.087Z,3.30
2022-11-10T14:52:49.817Z,2.40
2022-11-10T14:55:25.080Z,3.10
2022-11-10T14:58:03.180Z,3.10
2022-11-10T15:00:35.471Z,2.88
2022-11-10T15:03:03.856Z,3.45
2022-11-10T15:05:31.678Z,3.53
2022-11-10T15:07:58.844Z,3.00
2022-11-10T15:10:28.269Z,3.60
2022-11-10T15:13:00.340Z,3.92
2022-11-10T15:15:27.156Z,3.88
2022-11-10T15:17:54.613Z,3.00
2022-11-10T15:20:37.867Z,3.58
2022-11-10T15:23:14.289Z,3.50
2022-11-10T15:25:42.307Z,3.35
2022-11-10T15:28:36.226Z,3.40
2022-11-10T15:31:07.155Z,3.75
2022-11-10T15:33:36.897Z,3.58
2022-11-10T15:36:19.834Z,3.22
2022-11-10T15:39:01.941Z,3.05
2022-11-10T15:41:32.690Z,3.35
2022-11-10T15:44:19.414Z,3.17
2022-11-10T15:46:47.063Z,3.80
2022-11-10T15:49:28.945Z,3.60
2022-11-10T15:51:59.194Z,3.40
2022-11-10T15:54:29.210Z,3.33
2022-11-10T15:56:55.835Z,4.35
2022-11-10T15:59:22.510Z,4.30
2022-11-10T16:01:49.659Z,5.38
2022-11-10T16:04:17.017Z,5.20
2022-11-10T16:06:43.682Z,5.57
2022-11-10T16:09:12.673Z,4.95
2022-11-10T16:11:43.957Z,5.55
2022-11-10T16:14:14.506Z,9.38
2022-11-10T16:16:42.032Z,16.30
2022-11-10T16:19:11.354Z,13.30
2022-11-10T16:21:38.679Z,11.13
2022-11-10T16:24:08.965Z,8.93
2022-11-10T16:26:35.579Z,9.95
2022-11-10T16:29:02.257Z,6.38
2022-11-10T16:31:30.295Z,7.05
2022-11-10T16:33:56.885Z,6.60
2022-11-10T16:36:27.892Z,5.72
2022-11-10T16:38:55.119Z,6.97
2022-11-10T16:41:22.420Z,6.38
2022-11-10T16:43:52.574Z,7.45
2022-11-10T16:46:23.529Z,7.32
2022-11-10T16:48:53.443Z,6.70
2022-11-10T16:51:28.792Z,7.00
2022-11-10T16:53:55.433Z,7.30
2022-11-10T16:56:23.089Z,8.15
2022-11-10T16:58:49.677Z,8.68
2022-11-10T17:01:20.775Z,10.38
2022-11-10T17:03:51.310Z,11.77
2022-11-10T17:06:19.812Z,10.43
2022-11-10T17:08:48.795Z,11.18
2022-11-10T17:11:16.415Z,8.23
2022-11-10T17:13:43.085Z,7.60
2022-11-10T17:16:28.730Z,7.25
2022-11-10T17:18:57.872Z,7.30
2022-11-10T17:21:28.604Z,6.35
2022-11-10T17:24:00.670Z,5.30
2022-11-10T17:26:28.286Z,6.25
2022-11-10T17:28:55.021Z,6.03
2022-11-10T17:31:21.557Z,5.47
2022-11-10T17:33:48.215Z,5.50
2022-11-10T17:36:19.212Z,4.95
2022-11-10T17:38:46.138Z,5.15
2022-11-10T17:41:16.336Z,5.57
2022-11-10T17:43:45.792Z,5.00
2022-11-10T17:46:14.643Z,5.32
2022-11-10T17:48:41.384Z,5.30
2022-11-10T17:51:18.110Z,5.45
2022-11-10T17:53:45.148Z,6.93
2022-11-10T17:56:11.860Z,6.05
2022-11-10T17:58:38.659Z,5.82
2022-11-10T18:01:22.373Z,7.10
2022-11-10T18:03:49.995Z,6.43
2022-11-10T18:06:18.715Z,6.25
2022-11-10T18:08:45.869Z,6.65
2022-11-10T18:11:16.002Z,5.97
2022-11-10T18:13:43.692Z,7.18
2022-11-10T18:16:12.881Z,6.13
2022-11-10T18:18:39.598Z,5.97
2022-11-10T18:21:08.445Z,6.10
2022-11-10T18:23:35.020Z,6.78
2022-11-10T18:26:04.962Z,6.90
2022-11-10T18:28:31.563Z,6.07
2022-11-10T18:30:58.184Z,5.63
2022-11-10T18:33:25.086Z,5.40
2022-11-10T18:35:52.358Z,6.07
2022-11-10T18:38:19.018Z,6.47
2022-11-10T18:40:45.588Z,7.03
2022-11-10T18:43:12.208Z,6.05
2022-11-10T18:45:39.055Z,6.47
2022-11-10T18:48:06.021Z,6.55
2022-11-10T18:50:32.646Z,8.70
2022-11-10T18:52:59.504Z,9.32
2022-11-10T18:55:26.301Z,11.05
2022-11-10T18:57:52.949Z,13.05
2022-11-10T19:00:19.780Z,16.38
2022-11-10T19:02:46.439Z,13.40
2022-11-10T19:05:13.156Z,11.60
2022-11-10T19:07:39.749Z,14.20
2022-11-10T19:10:06.541Z,12.20
2022-11-10T19:12:33.166Z,10.65
2022-11-10T19:14:59.712Z,11.73
2022-11-10T19:17:26.295Z,11.02
2022-11-10T19:19:56.383Z,10.30
2022-11-10T19:22:26.753Z,10.18
2022-11-10T19:25:07.670Z,10.60
2022-11-10T19:27:35.870Z,10.55
2022-11-10T19:30:02.497Z,10.48
2022-11-10T19:32:29.830Z,10.60
2022-11-10T19:34:56.483Z,11.48
2022-11-10T19:37:23.080Z,11.32
2022-11-10T19:39:49.622Z,10.50
2022-11-10T19:42:16.189Z,11.50
2022-11-10T19:44:42.772Z,9.77
2022-11-10T19:47:09.329Z,9.85
2022-11-10T19:49:38.573Z,9.20
2022-11-10T19:52:05.278Z,9.98
2022-11-10T19:54:31.918Z,9.77
2022-11-10T19:56:58.574Z,8.85
2022-11-10T19:59:25.218Z,9.32
2022-11-10T20:01:52.228Z,10.23
2022-11-10T20:04:18.939Z,9.98
2022-11-10T20:06:45.577Z,8.93
2022-11-10T20:09:12.326Z,9.73
2022-11-10T20:11:38.986Z,8.93
2022-11-10T20:14:06.933Z,9.50
2022-11-10T20:16:33.662Z,9.63
2022-11-10T20:19:00.213Z,10.25
2022-11-10T20:21:26.869Z,10.27
2022-11-10T20:23:55.077Z,9.65
2022-11-10T20:26:22.390Z,9.45
2022-11-10T20:28:49.932Z,9.07
2022-11-10T20:31:20.698Z,9.48
2022-11-10T20:33:48.577Z,9.02
2022-11-10T20:36:20.871Z,8.70
2022-11-10T20:38:49.377Z,8.80
2022-11-10T20:41:19.770Z,9.52
2022-11-10T20:43:47.275Z,9.43
2022-11-10T20:46:52.986Z,10.00
2022-11-10T20:49:07.356Z,9.77
2022-11-10T20:51:33.988Z,10.15
2022-11-10T20:54:01.276Z,8.75
2022-11-10T20:56:30.023Z,7.70
2022-11-10T20:58:57.631Z,8.60
2022-11-10T21:01:24.706Z,9.00
2022-11-10T21:03:51.408Z,9.27
2022-11-10T21:06:19.256Z,8.32
2022-11-10T21:08:45.873Z,8.23
2022-11-10T21:11:32.799Z,9.00
2022-11-10T21:13:59.789Z,8.27
2022-11-10T21:16:26.364Z,8.15
2022-11-10T21:18:56.343Z,8.15
2022-11-10T21:21:27.832Z,8.65
2022-11-10T21:23:57.346Z,7.15
2022-11-10T21:26:24.560Z,8.55
2022-11-10T21:28:51.193Z,7.38
2022-11-10T21:31:18.706Z,8.88
2022-11-10T21:33:45.581Z,7.72
2022-11-10T21:36:12.210Z,7.88
2022-11-10T21:38:38.838Z,8.98
2022-11-10T21:41:06.036Z,10.05
2022-11-10T21:43:32.682Z,10.40
2022-11-10T21:46:01.744Z,9.85
2022-11-10T21:48:28.318Z,11.05
2022-11-10T21:51:00.597Z,10.70
2022-11-10T21:53:27.284Z,9.32
2022-11-10T21:56:04.954Z,8.75
2022-11-10T21:58:33.407Z,9.13
2022-11-10T22:01:02.157Z,8.98
2022-11-10T22:03:30.832Z,9.52
2022-11-10T22:06:07.016Z,8.48
2022-11-10T22:08:35.169Z,9.35
2022-11-10T22:11:17.282Z,9.63
2022-11-10T22:13:59.355Z,9.68
2022-11-10T22:16:43.945Z,10.73
2022-11-10T22:19:10.540Z,10.57
2022-11-10T22:21:37.116Z,9.82
2022-11-10T22:24:19.118Z,10.50
2022-11-10T22:26:45.675Z,12.05
2022-11-10T22:29:12.429Z,12.52
2022-11-10T22:31:39.012Z,12.57
2022-11-10T22:34:05.625Z,13.15
2022-11-10T22:36:32.504Z,14.18
2022-11-10T22:39:03.365Z,14.90
2022-11-10T22:41:45.640Z,14.30
2022-11-10T22:44:13.843Z,13.15
2022-11-10T22:46:45.784Z,13.45
2022-11-10T22:49:14.321Z,12.93
2022-11-10T22:51:41.736Z,12.63
2022-11-10T22:54:12.237Z,17.63
2022-11-10T22:56:39.756Z,15.65
2022-11-10T22:59:06.929Z,12.65
2022-11-10T23:01:34.319Z,15.38
2022-11-10T23:04:02.149Z,15.23
2022-11-10T23:06:29.623Z,16.00
2022-11-10T23:08:57.367Z,15.15
2022-11-10T23:11:27.501Z,13.70
2022-11-10T23:13:54.101Z,14.00
2022-11-10T23:16:25.836Z,14.07
2022-11-10T23:18:54.249Z,14.85
2022-11-10T23:21:23.968Z,13.30
2022-11-10T23:23:51.239Z,12.52
2022-11-10T23:26:20.918Z,12.50
2022-11-10T23:28:47.908Z,11.80
2022-11-10T23:31:16.788Z,13.60
2022-11-10T23:33:44.841Z,13.40
2022-11-10T23:36:13.370Z,13.48
2022-11-10T23:38:43.234Z,12.00
2022-11-10T23:41:15.665Z,13.07
2022-11-10T23:43:42.434Z,12.60
2022-11-10T23:46:10.366Z,13.05
2022-11-10T23:48:38.439Z,11.85
2022-11-10T23:51:06.968Z,13.00
2022-11-10T23:53:33.972Z,12.70
2022-11-10T23:56:02.939Z,13.13
2022-11-10T23:58:30.333Z,13.07
